createdAt,value
2018-05-14T00:00:30.691Z,80.80
2018-05-14T00:01:30.677Z,79.30
2018-05-14T00:02:30.673Z,84.60
2018-05-14T00:03:30.654Z,83.60
2018-05-14T00:04:30.639Z,93.20
2018-05-14T00:05:30.622Z,97.90
2018-05-14T00:06:30.616Z,91.50
2018-05-14T00:07:30.602Z,84.20
2018-05-14T00:08:30.588Z,90.10
2018-05-14T00:09:30.581Z,93.00
2018-05-14T00:10:30.560Z,88.20
2018-05-14T00:11:30.553Z,91.20
2018-05-14T00:12:30.544Z,86.40
2018-05-14T00:13:30.526Z,91.60
2018-05-14T00:14:30.519Z,88.00
2018-05-14T00:15:30.497Z,85.60
2018-05-14T00:16:30.491Z,86.50
2018-05-14T00:17:30.478Z,85.90
2018-05-14T00:18:30.460Z,83.40
2018-05-14T00:19:30.452Z,82.10
2018-05-14T00:20:30.451Z,78.60
2018-05-14T00:21:30.420Z,84.90
2018-05-14T00:22:30.413Z,86.00
2018-05-14T00:23:30.395Z,86.80
2018-05-14T00:24:30.404Z,85.30
2018-05-14T00:25:30.369Z,83.20
2018-05-14T00:26:30.358Z,87.20
2018-05-14T00:27:30.342Z,91.00
2018-05-14T00:28:30.330Z,89.70
2018-05-14T00:29:30.322Z,86.00
2018-05-14T00:30:30.308Z,78.20
2018-05-14T00:31:30.302Z,79.80
2018-05-14T00:32:30.281Z,77.80
2018-05-14T00:33:30.269Z,81.00
2018-05-14T00:34:30.261Z,81.50
2018-05-14T00:35:30.247Z,84.90
2018-05-14T00:36:30.225Z,86.80
2018-05-14T00:37:30.278Z,81.80
2018-05-14T00:38:30.209Z,84.90
2018-05-14T00:39:30.198Z,84.40
2018-05-14T00:40:30.182Z,83.50
2018-05-14T00:41:30.168Z,81.10
2018-05-14T00:42:30.154Z,76.30
2018-05-14T00:43:30.138Z,72.70
2018-05-14T00:44:30.129Z,75.40
2018-05-14T00:45:30.109Z,79.10
2018-05-14T00:46:30.108Z,78.90
2018-05-14T00:47:30.086Z,78.70
2018-05-14T00:48:30.080Z,76.50
2018-05-14T00:49:30.075Z,80.30
2018-05-14T00:50:30.049Z,74.70
2018-05-14T00:51:30.042Z,79.60
2018-05-14T00:52:30.020Z,78.70
2018-05-14T00:53:30.009Z,78.80
2018-05-14T00:54:29.997Z,77.90
2018-05-14T00:55:29.978Z,77.80
2018-05-14T00:56:29.970Z,76.10
2018-05-14T00:57:29.958Z,83.10
2018-05-14T00:58:29.952Z,82.40
2018-05-14T00:59:29.928Z,79.60
2018-05-14T01:00:29.915Z,77.40
2018-05-14T01:01:29.908Z,77.00
2018-05-14T01:02:29.895Z,81.80
2018-05-14T01:03:29.882Z,81.90
2018-05-14T01:04:29.868Z,83.70
2018-05-14T01:05:29.878Z,84.30
2018-05-14T01:06:29.934Z,87.70
2018-05-14T01:07:29.825Z,84.00
2018-05-14T01:08:29.865Z,80.80
2018-05-14T01:09:29.798Z,87.50
2018-05-14T01:10:29.800Z,78.40
2018-05-14T01:11:29.779Z,81.80
2018-05-14T01:12:29.868Z,78.10
2018-05-14T01:13:29.749Z,79.40
2018-05-14T01:14:29.740Z,79.90
2018-05-14T01:15:29.719Z,76.30
2018-05-14T01:16:29.709Z,74.10
2018-05-14T01:17:29.699Z,73.90
2018-05-14T01:18:29.730Z,79.40
2018-05-14T01:19:29.672Z,80.20
2018-05-14T01:20:29.658Z,78.80
2018-05-14T01:21:29.641Z,79.00
2018-05-14T01:22:29.629Z,75.00
2018-05-14T01:23:29.614Z,78.70
2018-05-14T01:24:29.603Z,76.60
2018-05-14T01:25:29.589Z,73.70
2018-05-14T01:26:29.578Z,71.50
2018-05-14T01:27:29.566Z,73.20
2018-05-14T01:28:29.550Z,73.30
2018-05-14T01:29:29.550Z,73.80
2018-05-14T01:30:29.523Z,72.20
2018-05-14T01:31:29.520Z,75.10
2018-05-14T01:32:29.505Z,69.80
2018-05-14T01:33:29.490Z,69.90
2018-05-14T01:34:29.479Z,72.20
2018-05-14T01:35:29.460Z,67.80
2018-05-14T01:36:29.452Z,68.90
2018-05-14T01:37:29.435Z,73.00
2018-05-14T01:38:29.421Z,71.30
2018-05-14T01:39:29.415Z,70.30
2018-05-14T01:40:29.395Z,68.90
2018-05-14T01:41:29.380Z,73.20
2018-05-14T01:42:29.376Z,68.60
2018-05-14T01:43:29.360Z,69.40
2018-05-14T01:44:29.347Z,66.00
2018-05-14T01:45:29.328Z,69.00
2018-05-14T01:46:29.322Z,72.90
2018-05-14T01:47:29.304Z,71.60
2018-05-14T01:48:29.290Z,69.70
2018-05-14T01:49:29.278Z,64.40
2018-05-14T01:50:29.270Z,66.20
2018-05-14T01:51:29.251Z,63.70
2018-05-14T01:52:29.239Z,63.40
2018-05-14T01:53:29.228Z,63.40
2018-05-14T01:54:29.210Z,63.80
2018-05-14T01:55:29.201Z,63.50
2018-05-14T01:56:29.194Z,60.60
2018-05-14T01:57:29.180Z,63.30
2018-05-14T01:58:29.161Z,64.10
2018-05-14T01:59:29.152Z,63.40
2018-05-14T02:00:29.143Z,64.80
2018-05-14T02:01:29.127Z,65.10
2018-05-14T02:02:29.112Z,63.40
2018-05-14T02:03:29.103Z,65.10
2018-05-14T02:04:29.081Z,68.80
2018-05-14T02:05:29.076Z,62.20
2018-05-14T02:06:29.059Z,64.10
2018-05-14T02:07:29.063Z,65.90
2018-05-14T02:08:29.026Z,59.70
2018-05-14T02:09:29.019Z,62.90
2018-05-14T02:10:29.000Z,62.80
2018-05-14T02:11:28.988Z,61.70
2018-05-14T02:12:28.978Z,63.00
2018-05-14T02:13:28.965Z,62.10
2018-05-14T02:14:28.950Z,61.90
2018-05-14T02:15:28.939Z,61.40
2018-05-14T02:16:28.926Z,60.30
2018-05-14T02:17:28.913Z,58.80
2018-05-14T02:18:28.900Z,61.10
2018-05-14T02:19:28.884Z,59.70
2018-05-14T02:20:28.869Z,58.30
2018-05-14T02:21:28.863Z,61.90
2018-05-14T02:22:28.847Z,62.20
2018-05-14T02:23:28.833Z,60.70
2018-05-14T02:24:28.823Z,60.40
2018-05-14T02:25:28.808Z,60.00
2018-05-14T02:26:28.794Z,60.00
2018-05-14T02:27:28.781Z,57.50
2018-05-14T02:28:28.771Z,59.50
2018-05-14T02:29:28.817Z,60.00
2018-05-14T02:30:28.758Z,61.20
2018-05-14T02:31:28.731Z,63.30
2018-05-14T02:32:28.716Z,62.00
2018-05-14T02:33:28.708Z,59.30
2018-05-14T02:34:28.691Z,58.20
2018-05-14T02:35:28.678Z,61.70
2018-05-14T02:36:28.670Z,59.40
2018-05-14T02:37:28.651Z,61.40
2018-05-14T02:38:28.638Z,63.20
2018-05-14T02:39:28.630Z,60.60
2018-05-14T02:40:28.614Z,59.80
2018-05-14T02:41:28.599Z,58.00
2018-05-14T02:42:28.586Z,58.90
2018-05-14T02:43:28.575Z,58.10
2018-05-14T02:44:28.560Z,58.70
2018-05-14T02:45:28.546Z,56.40
2018-05-14T02:46:28.536Z,58.60
2018-05-14T02:47:28.520Z,59.00
2018-05-14T02:48:28.507Z,56.70
2018-05-14T02:49:28.496Z,56.90
2018-05-14T02:50:28.483Z,58.10
2018-05-14T02:51:28.470Z,57.40
2018-05-14T02:52:28.464Z,59.10
2018-05-14T02:53:28.450Z,60.90
2018-05-14T02:54:28.430Z,58.70
2018-05-14T02:55:28.421Z,58.40
2018-05-14T02:56:28.402Z,57.70
2018-05-14T02:57:28.396Z,54.50
2018-05-14T02:58:28.381Z,54.80
2018-05-14T02:59:28.364Z,56.50
2018-05-14T03:00:28.357Z,57.10
2018-05-14T03:01:28.342Z,57.70
2018-05-14T03:02:28.330Z,57.30
2018-05-14T03:03:28.318Z,57.90
2018-05-14T03:04:28.303Z,58.70
2018-05-14T03:05:28.288Z,56.90
2018-05-14T03:06:28.273Z,55.20
2018-05-14T03:07:28.261Z,57.50
2018-05-14T03:08:28.249Z,55.90
2018-05-14T03:09:28.247Z,59.00
2018-05-14T03:10:28.269Z,57.10
2018-05-14T03:11:28.210Z,57.10
2018-05-14T03:12:28.215Z,59.80
2018-05-14T03:13:28.184Z,55.60
2018-05-14T03:14:28.175Z,57.30
2018-05-14T03:15:28.159Z,57.00
2018-05-14T03:16:28.147Z,57.00
2018-05-14T03:17:28.138Z,60.20
2018-05-14T03:18:28.121Z,60.20
2018-05-14T03:19:28.111Z,56.80
2018-05-14T03:20:28.095Z,54.80
2018-05-14T03:21:28.083Z,57.10
2018-05-14T03:22:28.069Z,55.60
2018-05-14T03:23:28.055Z,58.00
2018-05-14T03:24:28.048Z,58.40
2018-05-14T03:25:28.032Z,56.90
2018-05-14T03:26:28.020Z,54.60
2018-05-14T03:27:28.007Z,58.10
2018-05-14T03:28:28.105Z,55.00
2018-05-14T03:29:27.980Z,55.60
2018-05-14T03:30:28.104Z,55.00
2018-05-14T03:31:27.953Z,53.50
2018-05-14T03:32:27.944Z,56.20
2018-05-14T03:33:27.928Z,53.10
2018-05-14T03:34:27.917Z,55.50
2018-05-14T03:35:27.899Z,54.00
2018-05-14T03:36:27.890Z,56.80
2018-05-14T03:37:27.877Z,58.20
2018-05-14T03:38:28.059Z,57.10
2018-05-14T03:39:27.849Z,57.50
2018-05-14T03:40:27.888Z,59.20
2018-05-14T03:41:27.828Z,58.50
2018-05-14T03:42:27.865Z,57.90
2018-05-14T03:43:27.798Z,59.50
2018-05-14T03:44:27.889Z,59.30
2018-05-14T03:45:27.767Z,55.70
2018-05-14T03:46:27.758Z,58.70
2018-05-14T03:47:27.749Z,55.90
2018-05-14T03:48:27.730Z,58.60
2018-05-14T03:49:27.718Z,54.70
2018-05-14T03:50:27.704Z,56.20
2018-05-14T03:51:27.688Z,56.60
2018-05-14T03:52:27.681Z,54.70
2018-05-14T03:53:27.668Z,56.60
2018-05-14T03:54:27.657Z,57.00
2018-05-14T03:55:27.638Z,56.80
2018-05-14T03:56:27.627Z,54.70
2018-05-14T03:57:27.618Z,51.40
2018-05-14T03:58:27.611Z,54.60
2018-05-14T03:59:27.586Z,53.20
2018-05-14T04:00:27.571Z,52.60
2018-05-14T04:01:27.559Z,53.70
2018-05-14T04:02:27.568Z,52.50
2018-05-14T04:03:27.534Z,52.80
2018-05-14T04:04:27.522Z,52.30
2018-05-14T04:05:27.509Z,52.10
2018-05-14T04:06:27.497Z,51.80
2018-05-14T04:07:27.492Z,53.60
2018-05-14T04:08:27.565Z,54.00
2018-05-14T04:09:27.458Z,54.10
2018-05-14T04:10:27.449Z,53.20
2018-05-14T04:11:27.428Z,52.50
2018-05-14T04:12:27.419Z,54.60
2018-05-14T04:13:27.407Z,55.40
2018-05-14T04:14:27.397Z,56.00
2018-05-14T04:15:27.382Z,55.20
2018-05-14T04:16:27.457Z,55.90
2018-05-14T04:17:27.356Z,53.80
2018-05-14T04:18:27.339Z,55.50
2018-05-14T04:19:27.327Z,55.10
2018-05-14T04:20:27.318Z,54.90
2018-05-14T04:21:27.299Z,55.80
2018-05-14T04:22:27.289Z,56.10
2018-05-14T04:23:27.271Z,55.50
2018-05-14T04:24:27.337Z,58.10
2018-05-14T04:25:27.248Z,56.90
2018-05-14T04:26:27.242Z,58.50
2018-05-14T04:27:27.219Z,58.60
2018-05-14T04:28:27.208Z,57.90
2018-05-14T04:29:27.199Z,56.90
2018-05-14T04:30:27.189Z,61.10
2018-05-14T04:31:27.170Z,84.80
2018-05-14T04:32:27.159Z,62.90
2018-05-14T04:33:27.152Z,60.80
2018-05-14T04:34:27.129Z,59.00
2018-05-14T04:35:27.119Z,55.90
2018-05-14T04:36:27.112Z,56.00
2018-05-14T04:37:27.104Z,59.30
2018-05-14T04:38:27.090Z,59.00
2018-05-14T04:39:27.069Z,56.40
2018-05-14T04:40:27.054Z,55.70
2018-05-14T04:41:27.039Z,56.10
2018-05-14T04:42:27.033Z,57.10
2018-05-14T04:43:27.013Z,55.20
2018-05-14T04:44:27.008Z,54.70
2018-05-14T04:45:26.988Z,56.30
2018-05-14T04:46:26.976Z,55.40
2018-05-14T04:47:26.972Z,52.90
2018-05-14T04:48:26.952Z,53.50
2018-05-14T04:49:26.948Z,55.90
2018-05-14T04:50:26.930Z,54.50
2018-05-14T04:51:26.924Z,56.70
2018-05-14T04:52:26.899Z,56.40
2018-05-14T04:53:26.891Z,57.40
2018-05-14T04:54:26.872Z,56.30
2018-05-14T04:55:26.912Z,57.90
2018-05-14T04:56:26.904Z,57.10
2018-05-14T04:57:26.986Z,56.40
2018-05-14T04:58:26.820Z,55.60
2018-05-14T04:59:26.811Z,55.70
2018-05-14T05:00:26.802Z,56.50
2018-05-14T05:01:26.780Z,58.10
2018-05-14T05:02:26.771Z,58.60
2018-05-14T05:03:26.760Z,55.80
2018-05-14T05:04:26.743Z,57.10
2018-05-14T05:05:26.781Z,54.00
2018-05-14T05:06:26.718Z,59.20
2018-05-14T05:07:26.758Z,56.30
2018-05-14T05:08:26.691Z,55.40
2018-05-14T05:09:26.681Z,55.90
2018-05-14T05:10:26.693Z,57.70
2018-05-14T05:11:26.788Z,58.40
2018-05-14T05:12:26.637Z,55.00
2018-05-14T05:13:26.633Z,57.60
2018-05-14T05:14:26.610Z,57.20
2018-05-14T05:15:26.600Z,54.20
2018-05-14T05:16:26.587Z,52.90
2018-05-14T05:17:26.570Z,52.60
2018-05-14T05:18:26.571Z,54.20
2018-05-14T05:19:26.551Z,53.50
2018-05-14T05:20:26.536Z,52.30
2018-05-14T05:21:26.530Z,51.90
2018-05-14T05:22:26.514Z,53.30
2018-05-14T05:23:26.494Z,52.80
2018-05-14T05:24:26.490Z,52.20
2018-05-14T05:25:26.473Z,52.60
2018-05-14T05:26:26.458Z,50.10
2018-05-14T05:27:26.451Z,49.70
2018-05-14T05:28:26.475Z,50.40
2018-05-14T05:29:26.421Z,50.90
2018-05-14T05:30:26.485Z,51.30
2018-05-14T05:31:26.393Z,53.50
2018-05-14T05:32:26.388Z,52.00
2018-05-14T05:33:26.371Z,50.90
2018-05-14T05:34:26.363Z,49.80
2018-05-14T05:35:26.345Z,50.10
2018-05-14T05:36:26.332Z,49.30
2018-05-14T05:37:26.321Z,49.80
2018-05-14T05:38:26.308Z,51.70
2018-05-14T05:39:26.297Z,49.90
2018-05-14T05:40:26.289Z,49.30
2018-05-14T05:41:26.272Z,49.70
2018-05-14T05:42:26.259Z,50.60
2018-05-14T05:43:26.245Z,50.40
2018-05-14T05:44:26.240Z,53.30
2018-05-14T05:45:26.226Z,50.50
2018-05-14T05:46:26.215Z,51.50
2018-05-14T05:47:26.198Z,50.00
2018-05-14T05:48:26.182Z,51.10
2018-05-14T05:49:26.168Z,51.20
2018-05-14T05:50:26.160Z,50.10
2018-05-14T05:51:26.142Z,50.50
2018-05-14T05:52:26.142Z,50.60
2018-05-14T05:53:26.125Z,52.60
2018-05-14T05:54:26.108Z,50.00
2018-05-14T05:55:26.093Z,50.60
2018-05-14T05:56:26.084Z,48.90
2018-05-14T05:57:26.094Z,50.70
2018-05-14T05:58:26.057Z,49.60
2018-05-14T05:59:26.043Z,48.90
2018-05-14T06:00:26.039Z,47.10
2018-05-14T06:01:26.023Z,48.10
2018-05-14T06:02:26.009Z,48.80
2018-05-14T06:03:25.995Z,48.00
2018-05-14T06:04:25.981Z,47.90
2018-05-14T06:05:25.975Z,49.80
2018-05-14T06:06:25.958Z,48.80
2018-05-14T06:07:25.953Z,48.50
2018-05-14T06:08:25.945Z,49.50
2018-05-14T06:09:25.952Z,48.40
2018-05-14T06:10:25.913Z,47.00
2018-05-14T06:11:25.897Z,48.00
2018-05-14T06:12:25.890Z,48.00
2018-05-14T06:13:25.879Z,49.70
2018-05-14T06:14:25.863Z,49.10
2018-05-14T06:15:25.864Z,49.90
2018-05-14T06:16:25.840Z,48.40
2018-05-14T06:17:25.830Z,48.90
2018-05-14T06:18:25.820Z,47.40
2018-05-14T06:19:25.814Z,47.90
2018-05-14T06:20:25.798Z,47.60
2018-05-14T06:21:25.780Z,48.50
2018-05-14T06:22:25.823Z,49.20
2018-05-14T06:23:25.768Z,49.70
2018-05-14T06:24:25.744Z,48.50
2018-05-14T06:25:25.742Z,49.30
2018-05-14T06:26:25.721Z,50.00
2018-05-14T06:27:25.711Z,49.20
2018-05-14T06:28:25.696Z,51.50
2018-05-14T06:29:25.699Z,50.10
2018-05-14T06:30:25.677Z,49.90
2018-05-14T06:31:25.674Z,47.20
2018-05-14T06:32:25.651Z,48.50
2018-05-14T06:33:25.644Z,48.00
2018-05-14T06:34:25.643Z,49.10
2018-05-14T06:35:25.703Z,47.20
2018-05-14T06:36:25.607Z,47.40
2018-05-14T06:37:25.593Z,47.20
2018-05-14T06:38:25.589Z,46.80
2018-05-14T06:39:25.571Z,46.90
2018-05-14T06:40:25.563Z,45.60
2018-05-14T06:41:25.549Z,46.10
2018-05-14T06:42:25.543Z,47.50
2018-05-14T06:43:25.531Z,47.40
2018-05-14T06:44:25.659Z,46.50
2018-05-14T06:45:25.510Z,47.40
2018-05-14T06:46:25.492Z,47.90
2018-05-14T06:47:25.481Z,48.10
2018-05-14T06:48:25.464Z,45.70
2018-05-14T06:49:25.455Z,46.90
2018-05-14T06:50:25.450Z,47.10
2018-05-14T06:51:25.433Z,46.30
2018-05-14T06:52:25.429Z,46.40
2018-05-14T06:53:25.419Z,46.90
2018-05-14T06:54:25.452Z,45.40
2018-05-14T06:55:25.432Z,47.00
2018-05-14T06:56:25.381Z,45.80
2018-05-14T06:57:25.382Z,45.70
2018-05-14T06:58:25.361Z,44.10
2018-05-14T06:59:25.349Z,45.00
2018-05-14T07:00:25.443Z,44.60
2018-05-14T07:07:30.109Z,43.60
2018-05-14T07:08:30.100Z,41.80
2018-05-14T07:09:30.093Z,42.80
2018-05-14T07:10:30.077Z,43.20
2018-05-14T07:11:30.113Z,42.00
2018-05-14T07:12:30.054Z,41.40
2018-05-14T07:13:30.046Z,43.30
2018-05-14T07:14:30.038Z,44.10
2018-05-14T07:15:30.024Z,42.80
2018-05-14T07:16:30.012Z,41.70
2018-05-14T07:17:30.011Z,43.00
2018-05-14T07:18:29.996Z,42.90
2018-05-14T07:19:29.983Z,42.00
2018-05-14T07:20:29.974Z,40.80
2018-05-14T07:21:29.965Z,41.20
2018-05-14T07:22:30.059Z,41.60
2018-05-14T07:23:29.941Z,41.40
2018-05-14T07:24:29.936Z,41.40
2018-05-14T07:25:29.919Z,41.90
2018-05-14T07:26:29.913Z,40.00
2018-05-14T07:27:29.907Z,37.20
2018-05-14T07:28:29.898Z,36.40
2018-05-14T07:29:29.877Z,35.80
2018-05-14T07:30:29.868Z,35.50
2018-05-14T07:31:29.861Z,35.10
2018-05-14T07:32:29.850Z,35.30
2018-05-14T07:33:29.834Z,34.80
2018-05-14T07:34:29.884Z,35.50
2018-05-14T07:35:29.829Z,33.40
2018-05-14T07:36:29.813Z,35.80
2018-05-14T07:37:29.804Z,36.60
2018-05-14T07:38:29.843Z,33.10
2018-05-14T07:39:29.783Z,34.60
2018-05-14T07:40:29.877Z,34.00
2018-05-14T07:41:29.759Z,33.20
2018-05-14T07:42:29.748Z,31.70
2018-05-14T07:43:29.739Z,30.60
2018-05-14T07:44:29.785Z,30.30
2018-05-14T07:45:29.723Z,28.40
2018-05-14T07:46:29.713Z,27.90
2018-05-14T07:47:29.700Z,29.10
2018-05-14T07:48:29.691Z,28.30
2018-05-14T07:49:29.684Z,28.80
2018-05-14T07:50:29.669Z,29.70
2018-05-14T07:51:29.670Z,28.20
2018-05-14T07:52:29.652Z,28.40
2018-05-14T07:53:29.649Z,29.60
2018-05-14T07:54:29.644Z,28.70
2018-05-14T07:55:29.630Z,28.10
2018-05-14T07:56:29.621Z,27.90
2018-05-14T07:57:29.610Z,28.30
2018-05-14T07:58:29.602Z,27.40
2018-05-14T07:59:29.588Z,25.90
2018-05-14T08:00:29.579Z,25.90
2018-05-14T08:01:29.578Z,26.50
2018-05-14T08:02:29.567Z,25.50
2018-05-14T08:03:29.560Z,25.70
2018-05-14T08:04:29.550Z,25.90
2018-05-14T08:05:29.551Z,25.50
2018-05-14T08:06:29.541Z,24.70
2018-05-14T08:07:29.528Z,25.90
2018-05-14T08:08:29.531Z,23.30
2018-05-14T08:09:29.527Z,24.90
2018-05-14T08:10:29.525Z,23.60
2018-05-14T08:11:29.518Z,25.10
2018-05-14T08:12:29.508Z,24.30
2018-05-14T08:13:29.508Z,24.10
2018-05-14T08:14:29.502Z,24.50
2018-05-14T08:15:29.608Z,25.10
2018-05-14T08:16:29.493Z,23.80
2018-05-14T08:17:29.582Z,23.60
2018-05-14T08:18:29.495Z,23.10
2018-05-14T08:19:29.483Z,23.70
2018-05-14T08:20:29.483Z,23.90
2018-05-14T08:21:29.529Z,22.80
2018-05-14T08:22:29.484Z,21.80
2018-05-14T08:23:29.661Z,23.60
2018-05-14T08:24:29.483Z,22.50
2018-05-14T08:25:29.473Z,20.80
2018-05-14T08:26:29.482Z,20.90
2018-05-14T08:27:29.477Z,20.50
2018-05-14T08:28:29.483Z,19.80
2018-05-14T08:29:29.480Z,20.10
2018-05-14T08:30:29.483Z,19.70
2018-05-14T08:31:29.517Z,20.10
2018-05-14T08:32:29.484Z,19.10
2018-05-14T08:33:29.483Z,21.20
2018-05-14T08:34:29.493Z,20.90
2018-05-14T08:35:29.486Z,20.60
2018-05-14T08:36:29.486Z,20.80
2018-05-14T08:37:29.492Z,20.40
2018-05-14T08:38:29.602Z,19.40
2018-05-14T08:39:29.509Z,20.00
2018-05-14T08:40:29.504Z,19.80
2018-05-14T08:41:29.504Z,21.10
2018-05-14T08:42:29.646Z,20.40
2018-05-14T08:43:29.509Z,20.70
2018-05-14T08:44:29.541Z,20.60
2018-05-14T08:45:29.519Z,20.40
2018-05-14T08:46:29.519Z,18.80
2018-05-14T08:47:29.519Z,19.20
2018-05-14T08:48:29.537Z,18.50
2018-05-14T08:49:29.535Z,18.90
2018-05-14T08:50:29.535Z,18.30
2018-05-14T08:51:29.542Z,19.10
2018-05-14T08:52:29.551Z,18.50
2018-05-14T08:53:29.551Z,19.10
2018-05-14T08:54:29.667Z,18.10
2018-05-14T08:55:29.558Z,18.50
2018-05-14T08:56:29.560Z,18.40
2018-05-14T08:57:29.572Z,18.50
2018-05-14T08:58:29.575Z,18.60
2018-05-14T08:59:29.584Z,18.60
2018-05-14T09:00:29.583Z,18.70
2018-05-14T09:01:29.598Z,18.60
2018-05-14T09:02:29.594Z,18.40
2018-05-14T09:03:29.598Z,17.70
2018-05-14T09:04:29.598Z,16.50
2018-05-14T09:05:29.608Z,17.00
2018-05-14T09:06:29.607Z,18.20
2018-05-14T09:07:29.618Z,17.40
2018-05-14T09:08:29.624Z,16.10
2018-05-14T09:09:29.650Z,17.50
2018-05-14T09:10:29.633Z,16.30
2018-05-14T09:11:29.630Z,15.40
2018-05-14T09:12:29.635Z,14.70
2018-05-14T09:13:29.639Z,14.70
2018-05-14T09:14:29.640Z,14.90
2018-05-14T09:15:29.644Z,13.80
2018-05-14T09:16:29.647Z,14.00
2018-05-14T09:17:29.650Z,14.30
2018-05-14T09:18:29.660Z,15.10
2018-05-14T09:19:29.701Z,13.80
2018-05-14T09:20:29.672Z,14.10
2018-05-14T09:21:29.675Z,13.30
2018-05-14T09:22:29.672Z,13.90
2018-05-14T09:23:29.673Z,14.30
2018-05-14T09:24:29.772Z,13.30
2018-05-14T09:25:29.758Z,13.90
2018-05-14T09:26:29.734Z,14.30
2018-05-14T09:27:29.681Z,14.60
2018-05-14T09:28:29.680Z,14.70
2018-05-14T09:29:29.681Z,13.50
2018-05-14T09:30:29.685Z,13.60
2018-05-14T09:31:29.694Z,14.40
2018-05-14T09:32:29.691Z,14.50
2018-05-14T09:33:29.698Z,14.60
2018-05-14T09:34:29.694Z,15.70
2018-05-14T09:35:29.690Z,16.10
2018-05-14T09:36:29.697Z,15.30
2018-05-14T09:37:29.698Z,15.30
2018-05-14T09:38:29.697Z,13.70
2018-05-14T09:39:29.697Z,14.00
2018-05-14T09:40:29.697Z,13.50
2018-05-14T09:41:29.707Z,13.30
2018-05-14T09:42:29.704Z,13.10
2018-05-14T09:43:29.707Z,14.00
2018-05-14T09:44:29.751Z,12.70
2018-05-14T09:45:29.703Z,12.90
2018-05-14T09:46:29.710Z,12.80
2018-05-14T09:47:29.700Z,12.70
2018-05-14T09:48:29.708Z,12.20
2018-05-14T09:49:29.755Z,12.70
2018-05-14T09:50:29.796Z,11.90
2018-05-14T09:51:29.703Z,12.70
2018-05-14T09:52:29.701Z,12.70
2018-05-14T09:53:29.713Z,12.40
2018-05-14T09:54:29.707Z,12.00
2018-05-14T09:55:29.697Z,10.50
2018-05-14T09:56:29.700Z,11.10
2018-05-14T09:57:29.700Z,12.40
2018-05-14T09:58:29.700Z,12.80
2018-05-14T09:59:29.704Z,13.00
2018-05-14T10:00:29.697Z,12.00
2018-05-14T10:01:29.694Z,12.60
2018-05-14T10:02:29.692Z,12.90
2018-05-14T10:03:29.781Z,11.60
2018-05-14T10:04:29.688Z,12.10
2018-05-14T10:05:29.688Z,11.70
2018-05-14T10:06:29.691Z,12.30
2018-05-14T10:07:29.682Z,12.40
2018-05-14T10:08:29.691Z,13.00
2018-05-14T10:09:29.685Z,11.60
2018-05-14T10:10:41.426Z,12.30
2018-05-14T10:11:29.681Z,12.60
2018-05-14T10:12:29.684Z,12.50
2018-05-14T10:13:29.680Z,12.40
2018-05-14T10:14:29.662Z,11.40
2018-05-14T10:15:29.664Z,12.30
2018-05-14T10:16:29.663Z,11.50
2018-05-14T10:17:29.663Z,11.70
2018-05-14T10:18:29.659Z,11.90
2018-05-14T10:19:29.659Z,12.50
2018-05-14T10:20:29.650Z,12.60
2018-05-14T10:21:29.653Z,12.10
2018-05-14T10:22:29.647Z,11.10
2018-05-14T10:23:29.642Z,11.10
2018-05-14T10:24:29.640Z,10.80
2018-05-14T10:25:29.639Z,11.90
2018-05-14T10:26:29.628Z,10.80
2018-05-14T10:27:29.638Z,11.50
2018-05-14T10:28:29.628Z,11.60
2018-05-14T10:29:29.628Z,11.40
2018-05-14T10:30:29.617Z,11.10
2018-05-14T10:31:29.612Z,10.50
2018-05-14T10:32:29.612Z,10.70
2018-05-14T10:33:29.605Z,10.00
2018-05-14T10:34:29.610Z,10.70
2018-05-14T10:35:29.601Z,10.10
2018-05-14T10:36:29.592Z,10.70
2018-05-14T10:37:29.601Z,11.30
2018-05-14T10:38:29.591Z,10.40
2018-05-14T10:39:29.591Z,9.90
2018-05-14T10:40:29.583Z,10.70
2018-05-14T10:41:29.576Z,10.90
2018-05-14T10:42:29.576Z,11.10
2018-05-14T10:43:29.576Z,10.40
2018-05-14T10:44:29.574Z,10.80
2018-05-14T10:45:29.557Z,10.70
2018-05-14T10:46:29.558Z,10.30
2018-05-14T10:47:29.558Z,11.10
2018-05-14T10:48:29.551Z,10.40
2018-05-14T10:49:29.550Z,10.00
2018-05-14T10:50:29.541Z,9.60
2018-05-14T10:51:29.541Z,10.20
2018-05-14T10:52:29.543Z,9.40
2018-05-14T10:53:29.532Z,9.90
2018-05-14T10:54:29.532Z,10.00
2018-05-14T10:55:29.526Z,9.90
2018-05-14T10:56:29.523Z,9.70
2018-05-14T10:57:29.520Z,10.30
2018-05-14T10:58:29.512Z,9.00
2018-05-14T10:59:29.514Z,9.60
2018-05-14T11:00:29.504Z,9.80
2018-05-14T11:01:29.500Z,9.60
2018-05-14T11:02:29.494Z,8.90
2018-05-14T11:03:29.485Z,9.50
2018-05-14T11:04:29.490Z,9.40
2018-05-14T11:05:29.478Z,8.90
2018-05-14T11:06:29.478Z,9.70
2018-05-14T11:07:29.480Z,9.30
2018-05-14T11:08:29.467Z,9.10
2018-05-14T11:09:29.469Z,9.30
2018-05-14T11:10:29.499Z,9.10
2018-05-14T11:11:29.458Z,8.70
2018-05-14T11:12:29.458Z,8.00
2018-05-14T11:13:29.452Z,8.30
2018-05-14T11:14:29.450Z,8.40
2018-05-14T11:15:29.440Z,8.80
2018-05-14T11:16:29.429Z,8.00
2018-05-14T11:17:29.440Z,7.80
2018-05-14T11:18:29.430Z,7.10
2018-05-14T11:19:29.423Z,8.00
2018-05-14T11:20:29.420Z,7.90
2018-05-14T11:21:29.418Z,7.80
2018-05-14T11:22:29.415Z,7.10
2018-05-14T11:23:29.414Z,7.20
2018-05-14T11:24:29.412Z,6.90
2018-05-14T11:25:29.398Z,7.20
2018-05-14T11:26:29.396Z,7.20
2018-05-14T11:27:29.399Z,7.10
2018-05-14T11:28:29.400Z,7.10
2018-05-14T11:29:29.383Z,7.40
2018-05-14T11:30:29.386Z,7.20
2018-05-14T11:31:29.393Z,7.00
2018-05-14T11:32:29.373Z,6.50
2018-05-14T11:33:29.372Z,6.80
2018-05-14T11:34:29.370Z,6.70
2018-05-14T11:35:29.477Z,7.10
2018-05-14T11:36:29.360Z,6.50
2018-05-14T11:37:29.355Z,6.70
2018-05-14T11:38:29.355Z,6.70
2018-05-14T11:39:29.341Z,6.80
2018-05-14T11:40:29.338Z,7.00
2018-05-14T11:41:29.334Z,6.90
2018-05-14T11:42:29.328Z,6.80
2018-05-14T11:43:29.328Z,6.70
2018-05-14T11:44:29.318Z,7.10
2018-05-14T11:45:29.318Z,6.60
2018-05-14T11:46:29.318Z,6.60
2018-05-14T11:47:29.308Z,6.70
2018-05-14T11:48:29.309Z,6.40
2018-05-14T11:49:29.295Z,6.70
2018-05-14T11:50:29.295Z,6.10
2018-05-14T11:51:29.293Z,6.60
2018-05-14T11:52:29.282Z,6.90
2018-05-14T11:53:29.280Z,6.80
2018-05-14T11:54:29.283Z,6.70
2018-05-14T11:55:29.284Z,6.70
2018-05-14T11:56:29.276Z,6.50
2018-05-14T11:57:29.277Z,6.40
2018-05-14T11:58:29.259Z,6.30
2018-05-14T11:59:29.263Z,6.00
2018-05-14T12:00:29.256Z,6.00
2018-05-14T12:01:29.303Z,6.50
2018-05-14T12:02:29.251Z,5.60
2018-05-14T12:03:29.360Z,6.40
2018-05-14T12:04:29.229Z,6.30
2018-05-14T12:05:29.332Z,5.90
2018-05-14T12:06:29.246Z,6.20
2018-05-14T12:07:29.272Z,6.60
2018-05-14T12:08:29.224Z,6.20
2018-05-14T12:09:29.273Z,5.90
2018-05-14T12:10:29.210Z,6.10
2018-05-14T12:11:29.216Z,6.30
2018-05-14T12:12:29.210Z,6.20
2018-05-14T12:13:29.201Z,6.00
2018-05-14T12:14:29.197Z,6.10
2018-05-14T12:15:29.195Z,5.60
2018-05-14T12:16:29.183Z,6.00
2018-05-14T12:17:29.177Z,6.00
2018-05-14T12:18:29.182Z,6.00
2018-05-14T12:19:29.168Z,6.00
2018-05-14T12:20:29.170Z,6.00
2018-05-14T12:21:29.171Z,5.90
2018-05-14T12:22:29.161Z,6.20
2018-05-14T12:23:29.162Z,5.80
2018-05-14T12:24:29.153Z,5.90
2018-05-14T12:25:29.149Z,5.90
2018-05-14T12:26:29.145Z,5.80
2018-05-14T12:27:29.140Z,6.10
2018-05-14T12:28:29.135Z,5.80
2018-05-14T12:29:29.133Z,5.90
2018-05-14T12:30:29.133Z,5.90
2018-05-14T12:31:29.122Z,5.90
2018-05-14T12:32:29.116Z,5.60
2018-05-14T12:33:29.115Z,6.00
2018-05-14T12:34:29.212Z,5.80
2018-05-14T12:35:29.107Z,5.40
2018-05-14T12:36:29.200Z,5.80
2018-05-14T12:37:29.185Z,5.50
2018-05-14T12:38:29.201Z,5.70
2018-05-14T12:39:29.092Z,6.00
2018-05-14T12:40:29.093Z,5.80
2018-05-14T12:41:29.082Z,5.70
2018-05-14T12:42:29.082Z,5.80
2018-05-14T12:43:29.076Z,5.40
2018-05-14T12:44:29.072Z,5.30
2018-05-14T12:45:29.080Z,5.10
2018-05-14T12:46:29.071Z,5.20
2018-05-14T12:47:29.063Z,5.00
2018-05-14T12:48:29.047Z,5.20
2018-05-14T12:49:29.057Z,5.40
2018-05-14T12:50:29.047Z,5.20
2018-05-14T12:51:29.044Z,5.00
2018-05-14T12:52:29.038Z,5.30
2018-05-14T12:53:29.124Z,5.50
2018-05-14T12:54:29.032Z,5.30
2018-05-14T12:55:29.026Z,5.30
2018-05-14T12:56:29.019Z,5.50
2018-05-14T12:57:29.022Z,5.60
2018-05-14T12:58:29.016Z,5.60
2018-05-14T12:59:29.012Z,5.20
2018-05-14T13:00:29.012Z,5.50
2018-05-14T13:01:29.038Z,5.30
2018-05-14T13:02:29.004Z,5.30